Time;durP1;ratioP1;P1;durP2;ratioP2;P2;SDS_P1;SDS_P2;PMS_P1;PMS_P2;Temp;Humidity;BMP_temperature;BMP_pressure;BME280_temperature;BME280_humidity;BME280_pressure;Samples;Min_cycle;Max_cycle;Signal;HPM_P1;HPM_P2
2022/08/15 02:05:09;;;;;;;15.80;14.90;;;22.10;99.90;;;;;;5996004;23;21500;-73
2022/08/15 02:07:36;;;;;;;16.63;15.83;;;22.10;99.90;;;;;;4892317;29;20487;-73
2022/08/15 02:10:04;;;;;;;16.00;15.30;;;22.10;99.90;;;;;;4894885;29;20964;-72
2022/08/15 02:12:34;;;;;;;16.03;15.27;;;22.10;99.90;;;;;;4894917;29;20481;-73
2022/08/15 02:15:06;;;;;;;16.70;15.90;;;22.30;99.90;;;;;;4894846;29;21104;-72
2022/08/15 02:17:33;;;;;;;16.30;15.30;;;22.30;99.90;;;;;;4894869;29;20839;-72
2022/08/15 02:20:01;;;;;;;15.47;14.83;;;22.30;99.90;;;;;;4894572;29;20499;-73
2022/08/15 02:22:29;;;;;;;15.20;14.50;;;22.40;99.90;;;;;;4894764;29;20455;-73
2022/08/15 02:24:57;;;;;;;16.27;15.37;;;22.30;99.90;;;;;;4894889;29;20455;-72
2022/08/15 02:27:24;;;;;;;16.33;15.53;;;22.40;99.90;;;;;;4895771;29;20455;-72
2022/08/15 02:29:51;;;;;;;17.00;15.90;;;22.40;99.90;;;;;;4901077;29;20459;-73
2022/08/15 02:32:18;;;;;;;15.30;14.30;;;22.50;99.90;;;;;;4901002;29;20505;-72
2022/08/15 02:34:48;;;;;;;14.10;13.50;;;22.50;99.90;;;;;;4900802;29;20941;-72
2022/08/15 02:37:18;;;;;;;17.13;16.23;;;22.40;99.90;;;;;;4900793;29;20463;-73
2022/08/15 02:39:47;;;;;;;16.37;14.83;;;22.50;99.90;;;;;;4900793;29;20497;-72
2022/08/15 02:42:15;;;;;;;16.40;15.20;;;22.50;99.90;;;;;;4900864;29;20490;-72
2022/08/15 02:44:42;;;;;;;16.80;16.10;;;22.50;99.90;;;;;;4901074;29;20546;-72
2022/08/15 02:47:13;;;;;;;16.50;15.60;;;22.40;99.90;;;;;;4901061;29;20454;-72
2022/08/15 02:49:40;;;;;;;17.17;16.17;;;22.40;99.90;;;;;;4901114;29;20612;-73
2022/08/15 02:52:07;;;;;;;15.97;15.03;;;22.40;99.90;;;;;;4901026;29;20466;-72
2022/08/15 02:54:35;;;;;;;17.67;16.57;;;22.40;99.90;;;;;;4900784;29;20459;-72
2022/08/15 02:57:03;;;;;;;17.00;15.80;;;22.40;99.90;;;;;;4900741;29;20447;-72
2022/08/15 02:59:30;;;;;;;15.87;15.20;;;22.30;99.90;;;;;;4900763;29;20689;-72
2022/08/15 03:01:58;;;;;;;16.40;15.50;;;22.40;99.90;;;;;;4900885;29;20451;-72
2022/08/15 03:04:26;;;;;;;16.23;15.43;;;22.40;99.90;;;;;;4900930;29;20837;-72
2022/08/15 03:06:56;;;;;;;16.37;15.47;;;22.30;99.90;;;;;;4900622;29;20486;-72
2022/08/15 03:09:23;;;;;;;16.63;15.60;;;22.30;99.90;;;;;;4901134;29;20811;-73
2022/08/15 03:11:50;;;;;;;16.10;15.20;;;22.30;99.90;;;;;;4900645;29;20519;-72
2022/08/15 03:14:20;;;;;;;15.30;14.50;;;22.30;99.90;;;;;;4900571;29;20805;-72
2022/08/15 03:16:48;;;;;;;15.93;15.03;;;22.40;99.90;;;;;;4900518;29;20458;-72
2022/08/15 03:19:18;;;;;;;14.93;14.00;;;22.40;99.90;;;;;;4900430;29;21013;-72
2022/08/15 03:21:45;;;;;;;15.67;14.47;;;22.40;99.90;;;;;;4900831;29;20462;-72
2022/08/15 03:24:12;;;;;;;15.00;14.10;;;22.40;99.90;;;;;;4900767;29;20466;-73
2022/08/15 03:26:39;;;;;;;15.57;14.67;;;22.40;99.90;;;;;;4900826;29;20455;-73
2022/08/15 03:29:07;;;;;;;15.53;14.73;;;22.40;99.90;;;;;;4900557;29;20847;-73
2022/08/15 03:31:35;;;;;;;15.57;14.77;;;22.40;99.90;;;;;;4900469;29;20973;-73
2022/08/15 03:34:02;;;;;;;16.10;15.10;;;22.40;99.90;;;;;;4900462;29;20518;-73
2022/08/15 03:36:29;;;;;;;16.70;15.80;;;22.30;99.90;;;;;;4900328;29;20482;-73
2022/08/15 03:38:55;;;;;;;15.37;14.70;;;22.40;99.90;;;;;;4899541;29;21001;-73
2022/08/15 03:41:23;;;;;;;15.80;14.90;;;22.40;99.90;;;;;;4896990;29;20451;-73
2022/08/15 03:43:49;;;;;;;15.67;14.70;;;22.40;99.90;;;;;;4897384;29;20478;-73
2022/08/15 03:46:18;;;;;;;15.40;14.60;;;22.30;99.90;;;;;;4897425;29;20466;-73
2022/08/15 03:48:49;;;;;;;14.50;13.70;;;22.40;99.90;;;;;;4897375;29;20458;-74
2022/08/15 03:51:17;;;;;;;14.43;13.43;;;22.30;99.90;;;;;;4897210;29;20451;-73
2022/08/15 03:53:47;;;;;;;15.87;14.97;;;22.30;99.90;;;;;;4897206;29;20494;-71
2022/08/15 03:56:16;;;;;;;15.10;14.20;;;22.30;99.90;;;;;;4897092;29;20455;-72
2022/08/15 03:58:43;;;;;;;14.00;13.30;;;22.20;99.90;;;;;;4897022;29;20458;-73
2022/08/15 04:01:13;;;;;;;15.50;14.60;;;22.30;99.90;;;;;;4897231;29;20495;-73
2022/08/15 04:03:40;;;;;;;16.50;14.60;;;22.20;99.90;;;;;;4897488;29;20458;-73
2022/08/15 04:06:11;;;;;;;14.07;13.43;;;22.20;99.90;;;;;;4896985;29;20482;-73
2022/08/15 04:08:38;;;;;;;13.87;13.10;;;22.20;99.90;;;;;;4897101;29;20454;-73
2022/08/15 04:11:07;;;;;;;14.40;13.70;;;22.10;99.90;;;;;;4896881;29;20452;-73
2022/08/15 04:13:35;;;;;;;14.80;14.10;;;22.10;99.90;;;;;;4896769;29;20470;-73
2022/08/15 04:16:03;;;;;;;14.87;14.23;;;22.10;99.90;;;;;;4896802;29;20466;-73
2022/08/15 04:18:30;;;;;;;14.63;13.93;;;22.10;99.90;;;;;;4896755;29;20459;-73
2022/08/15 04:20:59;;;;;;;15.43;14.33;;;22.00;99.90;;;;;;4896479;29;21016;-73
2022/08/15 04:23:28;;;;;;;15.43;14.50;;;21.90;99.90;;;;;;4896788;29;20455;-73
2022/08/15 04:25:55;;;;;;;15.07;14.13;;;22.10;99.90;;;;;;4896854;29;20463;-73
2022/08/15 04:28:23;;;;;;;13.30;12.70;;;22.10;99.90;;;;;;4896622;29;20510;-73
2022/08/15 04:30:50;;;;;;;14.67;13.77;;;21.90;99.90;;;;;;4896504;29;20462;-73
2022/08/15 04:33:20;;;;;;;14.00;13.40;;;21.90;99.90;;;;;;4896492;29;20466;-72
2022/08/15 04:35:50;;;;;;;15.23;14.50;;;21.80;99.90;;;;;;4896299;29;20463;-73
2022/08/15 04:38:17;;;;;;;14.23;13.63;;;21.80;99.90;;;;;;4896372;29;20451;-74
2022/08/15 04:40:46;;;;;;;14.57;13.67;;;21.80;99.90;;;;;;4896285;29;20494;-73
2022/08/15 04:43:13;;;;;;;15.37;14.67;;;21.80;99.90;;;;;;4896836;29;20459;-72
2022/08/15 04:45:41;;;;;;;15.40;14.60;;;21.90;99.90;;;;;;4897182;29;20837;-72
2022/08/15 04:48:09;;;;;;;14.60;13.83;;;21.80;99.90;;;;;;4897164;29;20464;-72
2022/08/15 04:50:39;;;;;;;14.13;13.53;;;21.80;99.90;;;;;;4896434;29;20462;-72
2022/08/15 04:53:08;;;;;;;15.83;15.10;;;21.70;99.90;;;;;;4897037;29;20550;-72
2022/08/15 04:55:36;;;;;;;13.90;13.30;;;21.70;99.90;;;;;;4896789;29;20490;-72
2022/08/15 04:58:04;;;;;;;14.50;13.90;;;21.80;99.90;;;;;;4896885;29;20460;-71
2022/08/15 05:00:32;;;;;;;14.57;13.73;;;21.80;99.90;;;;;;4896636;29;21017;-73
2022/08/15 05:03:02;;;;;;;15.03;14.00;;;21.70;99.90;;;;;;4896775;29;20459;-73
2022/08/15 05:05:30;;;;;;;14.97;14.20;;;21.70;99.90;;;;;;4896285;29;20589;-74
2022/08/15 05:07:56;;;;;;;14.77;14.07;;;21.70;99.90;;;;;;4896784;29;20466;-74
2022/08/15 05:10:23;;;;;;;14.47;13.60;;;21.80;99.90;;;;;;4896717;29;20980;-72
2022/08/15 05:12:50;;;;;;;15.30;14.30;;;21.90;99.90;;;;;;4896284;29;20455;-72
2022/08/15 05:15:19;;;;;;;13.80;13.10;;;21.90;99.90;;;;;;4896390;29;21144;-72
2022/08/15 05:17:47;;;;;;;13.83;13.13;;;21.80;99.90;;;;;;4896754;29;20925;-73
2022/08/15 05:20:14;;;;;;;13.90;13.20;;;21.90;99.90;;;;;;4896247;29;21036;-72
2022/08/15 05:22:53;;;;;;;13.43;12.87;;;22.00;99.90;;;;;;4896495;29;20459;-72
2022/08/15 05:25:20;;;;;;;14.03;13.53;;;22.00;99.90;;;;;;4896443;29;20886;-72
2022/08/15 05:27:47;;;;;;;14.50;13.70;;;22.00;99.90;;;;;;4896193;29;20466;-73
2022/08/15 05:30:14;;;;;;;13.63;12.93;;;22.00;99.90;;;;;;4896247;29;20455;-73
2022/08/15 05:32:42;;;;;;;14.23;13.63;;;21.90;99.90;;;;;;4896340;29;20470;-74
2022/08/15 05:35:10;;;;;;;13.87;12.90;;;21.80;99.90;;;;;;4896246;29;20973;-71
2022/08/15 05:37:37;;;;;;;14.27;13.47;;;21.80;99.90;;;;;;4896129;29;20558;-73
2022/08/15 05:40:05;;;;;;;13.70;13.10;;;21.80;99.90;;;;;;4895927;29;21005;-73
2022/08/15 05:42:40;;;;;;;13.90;13.00;;;21.70;99.90;;;;;;4896082;29;21009;-73
2022/08/15 05:45:12;;;;;;;14.57;13.97;;;21.80;99.90;;;;;;4896088;29;20459;-71
2022/08/15 05:47:47;;;;;;;12.90;12.30;;;21.80;99.90;;;;;;4896299;29;20511;-73
2022/08/15 05:50:20;;;;;;;13.37;12.57;;;21.90;99.90;;;;;;4895908;29;20462;-73
2022/08/15 05:52:50;;;;;;;14.00;13.40;;;22.00;99.90;;;;;;4895990;29;20451;-73
2022/08/15 05:55:24;;;;;;;13.73;13.13;;;22.10;99.90;;;;;;4895864;29;20458;-71
2022/08/15 05:58:11;;;;;;;14.37;13.40;;;22.10;99.90;;;;;;4895977;29;20560;-71
2022/08/15 06:00:39;;;;;;;12.83;12.20;;;22.10;99.90;;;;;;4895848;29;20491;-72
2022/08/15 06:03:14;;;;;;;14.67;13.70;;;22.10;99.90;;;;;;4895049;29;20466;-72
2022/08/15 06:05:45;;;;;;;13.70;12.93;;;22.10;99.90;;;;;;4895507;29;21022;-72
2022/08/15 06:08:15;;;;;;;13.53;12.93;;;22.20;99.90;;;;;;4895715;29;20463;-73
2022/08/15 06:10:47;;;;;;;14.20;13.30;;;22.20;99.90;;;;;;4895689;29;20779;-75
2022/08/15 06:13:21;;;;;;;13.97;12.83;;;22.20;99.90;;;;;;4895552;29;20798;-73
2022/08/15 06:15:53;;;;;;;13.20;12.40;;;22.40;99.90;;;;;;4895629;29;20554;-74
2022/08/15 06:18:23;;;;;;;14.07;13.47;;;22.40;99.90;;;;;;4895531;29;20448;-75
2022/08/15 06:20:56;;;;;;;14.50;13.30;;;22.30;99.90;;;;;;4895178;29;20495;-75
2022/08/15 06:23:35;;;;;;;13.40;12.40;;;22.30;99.90;;;;;;4895684;29;20462;-75
2022/08/15 06:26:13;;;;;;;12.37;11.87;;;22.30;99.90;;;;;;4895424;29;20455;-75
2022/08/15 06:29:05;;;;;;;13.03;12.53;;;22.20;99.90;;;;;;4895713;29;20478;-74
2022/08/15 06:31:34;;;;;;;13.40;12.80;;;22.10;99.90;;;;;;4895404;29;20455;-75
2022/08/15 06:34:23;;;;;;;14.20;13.60;;;22.00;99.90;;;;;;4891510;29;20455;-75
2022/08/15 06:36:56;;;;;;;13.30;12.70;;;22.10;99.90;;;;;;4893373;29;20462;-73
2022/08/15 06:39:32;;;;;;;12.20;11.70;;;22.10;99.90;;;;;;4895079;29;20447;-74
2022/08/15 06:42:07;;;;;;;12.57;11.97;;;22.10;99.90;;;;;;4894456;29;20501;-74
2022/08/15 06:44:34;;;;;;;13.80;13.00;;;22.20;99.90;;;;;;4894000;29;20455;-75
2022/08/15 06:47:03;;;;;;;13.50;12.90;;;22.30;99.90;;;;;;4894084;29;21071;-75
2022/08/15 06:49:33;;;;;;;12.30;11.70;;;22.40;99.90;;;;;;4893905;29;20470;-75
2022/08/15 06:52:01;;;;;;;14.57;13.73;;;22.50;99.90;;;;;;4894223;29;20451;-76
2022/08/15 06:54:29;;;;;;;12.90;12.30;;;22.40;99.90;;;;;;4893999;29;20459;-74
2022/08/15 06:57:00;;;;;;;12.70;12.20;;;22.30;99.90;;;;;;4894227;29;20459;-73
2022/08/15 06:59:36;;;;;;;13.20;12.60;;;22.60;99.90;;;;;;4894009;29;20462;-74
2022/08/15 07:02:19;;;;;;;12.57;12.07;;;23.40;99.90;;;;;;4893848;29;20885;-74
2022/08/15 07:04:58;;;;;;;13.57;12.80;;;24.40;99.90;;;;;;4893710;29;20471;-74
2022/08/15 07:07:39;;;;;;;12.57;12.07;;;25.00;99.90;;;;;;4893837;29;20486;-75
2022/08/15 07:10:14;;;;;;;13.70;13.10;;;25.70;99.90;;;;;;4892536;29;20451;-76
2022/08/15 07:12:51;;;;;;;12.97;12.37;;;26.90;97.10;;;;;;4894382;29;20458;-75
2022/08/15 07:15:25;;;;;;;14.37;13.67;;;28.80;93.20;;;;;;4897173;29;20446;-76
2022/08/15 07:17:55;;;;;;;12.90;12.17;;;30.20;90.00;;;;;;4897796;29;20491;-76
2022/08/15 07:20:23;;;;;;;14.30;13.70;;;31.00;85.00;;;;;;4897561;29;20502;-76
2022/08/15 07:22:51;;;;;;;13.80;13.40;;;31.60;80.30;;;;;;4897671;29;20536;-76
2022/08/15 07:25:26;;;;;;;13.77;13.17;;;31.60;77.90;;;;;;4897625;29;20831;-76
2022/08/15 07:27:59;;;;;;;21.40;17.87;;;31.20;78.10;;;;;;4897617;29;20490;-75
2022/08/15 07:30:38;;;;;;;15.70;15.00;;;31.50;78.00;;;;;;4897895;29;20812;-75
2022/08/15 07:33:05;;;;;;;13.80;13.20;;;31.40;75.90;;;;;;4897378;29;20950;-75
2022/08/15 07:35:35;;;;;;;14.40;13.90;;;31.50;76.10;;;;;;4897195;29;20677;-75
2022/08/15 07:38:05;;;;;;;13.50;13.00;;;31.50;75.20;;;;;;4897240;29;20514;-75
2022/08/15 07:40:34;;;;;;;14.70;14.10;;;31.70;74.20;;;;;;4897365;29;20487;-74
2022/08/15 07:43:05;;;;;;;14.10;13.60;;;30.80;75.90;;;;;;4896910;29;20493;-74
2022/08/15 07:45:34;;;;;;;14.20;13.60;;;30.10;79.00;;;;;;4897359;29;20550;-74
2022/08/15 07:48:05;;;;;;;14.47;13.97;;;30.40;78.90;;;;;;4895241;29;20474;-74
2022/08/15 07:50:39;;;;;;;14.57;13.97;;;30.50;76.30;;;;;;4897393;29;20465;-74
2022/08/15 07:53:13;;;;;;;13.33;12.83;;;29.70;78.20;;;;;;4896842;29;20463;-74
2022/08/15 07:55:40;;;;;;;13.90;13.30;;;28.80;80.70;;;;;;4897313;29;20518;-74
2022/08/15 07:58:17;;;;;;;13.73;13.13;;;27.50;85.20;;;;;;4897027;29;20980;-73
2022/08/15 08:00:52;;;;;;;14.20;13.50;;;27.40;88.80;;;;;;4896870;29;20549;-74
2022/08/15 08:03:24;;;;;;;14.70;14.10;;;28.60;85.30;;;;;;4896930;29;20463;-74
2022/08/15 08:05:57;;;;;;;14.27;13.67;;;30.50;77.80;;;;;;4896536;29;20852;-74
2022/08/15 08:08:32;;;;;;;14.10;13.60;;;31.00;74.70;;;;;;4897010;29;20558;-74
2022/08/15 08:11:04;;;;;;;14.40;13.80;;;30.00;77.10;;;;;;4896704;29;20451;-73
2022/08/15 08:13:43;;;;;;;14.83;14.23;;;29.80;78.70;;;;;;4896446;29;20535;-73
2022/08/15 08:16:19;;;;;;;14.43;13.83;;;29.40;79.90;;;;;;4897081;29;20861;-73
2022/08/15 08:18:56;;;;;;;14.70;13.90;;;29.40;80.70;;;;;;4896209;29;20498;-73
2022/08/15 08:21:33;;;;;;;13.80;13.20;;;29.30;80.50;;;;;;4894771;29;20493;-74
2022/08/15 08:24:04;;;;;;;14.20;13.70;;;29.50;79.90;;;;;;4896574;29;20459;-75
2022/08/15 08:26:38;;;;;;;14.20;13.60;;;29.40;79.90;;;;;;4895951;29;20502;-75
2022/08/15 08:29:14;;;;;;;13.97;13.47;;;29.30;80.60;;;;;;4896521;29;20459;-75
2022/08/15 08:31:50;;;;;;;13.37;12.80;;;28.80;81.60;;;;;;4896741;29;20840;-75
2022/08/15 08:34:24;;;;;;;13.63;13.13;;;28.20;83.30;;;;;;4896471;29;20459;-75
2022/08/15 08:37:02;;;;;;;13.13;12.73;;;28.10;84.00;;;;;;4896512;29;20454;-75
2022/08/15 08:39:38;;;;;;;13.83;13.33;;;29.10;81.30;;;;;;4896438;29;20941;-75
2022/08/15 08:42:16;;;;;;;13.27;12.67;;;30.20;77.90;;;;;;4896343;29;20494;-75
2022/08/15 08:44:50;;;;;;;14.63;14.13;;;30.60;74.60;;;;;;4896413;29;20563;-76
2022/08/15 08:47:31;;;;;;;14.83;14.13;;;30.50;75.30;;;;;;4896424;29;20460;-75
2022/08/15 08:50:15;;;;;;;14.17;13.47;;;31.50;72.70;;;;;;4896169;29;20962;-76
2022/08/15 08:52:53;;;;;;;14.70;14.20;;;32.60;68.80;;;;;;4896304;29;20458;-76
2022/08/15 08:55:26;;;;;;;14.50;14.00;;;33.40;65.70;;;;;;4896142;29;20463;-75
2022/08/15 08:57:58;;;;;;;15.20;14.60;;;34.20;62.40;;;;;;4896599;29;20455;-75
2022/08/15 09:00:31;;;;;;;13.80;13.37;;;34.60;61.10;;;;;;4896472;29;20462;-75
2022/08/15 09:03:06;;;;;;;15.20;14.60;;;35.10;58.70;;;;;;4895898;29;20455;-75
2022/08/15 09:05:37;;;;;;;15.50;14.80;;;35.10;56.80;;;;;;4895693;29;20557;-75
2022/08/15 09:08:13;;;;;;;15.23;14.33;;;34.50;57.80;;;;;;4895842;29;20459;-75
2022/08/15 09:10:43;;;;;;;14.80;14.30;;;33.40;59.80;;;;;;4896015;29;20522;-75
2022/08/15 09:16:02;;;;;;;14.40;13.90;;;31.80;63.30;;;;;;4895978;29;20488;-75
2022/08/15 09:18:32;;;;;;;16.90;16.20;;;31.40;64.70;;;;;;4895579;29;20455;-75
2022/08/15 09:20:59;;;;;;;14.30;13.60;;;31.80;64.60;;;;;;4895536;29;20491;-76
2022/08/15 09:23:36;;;;;;;14.10;13.70;;;32.50;62.40;;;;;;4895939;29;20459;-75
2022/08/15 09:26:10;;;;;;;15.00;14.40;;;32.90;61.60;;;;;;4895569;29;20687;-74
2022/08/15 09:28:40;;;;;;;13.37;12.87;;;33.30;59.50;;;;;;4893798;29;20466;-74
2022/08/15 09:31:13;;;;;;;13.53;13.03;;;33.00;59.30;;;;;;4895381;29;20486;-74
2022/08/15 09:34:06;;;;;;;14.10;13.60;;;32.90;60.90;;;;;;4895335;29;20494;-74
2022/08/15 09:37:02;;;;;;;16.00;15.40;;;33.60;57.50;;;;;;4895412;29;20455;-74
2022/08/15 09:39:57;;;;;;;13.43;12.83;;;32.50;59.90;;;;;;4895071;29;20558;-75
2022/08/15 09:42:40;;;;;;;14.47;13.87;;;31.80;63.60;;;;;;4895545;29;21040;-75
2022/08/15 09:45:34;;;;;;;15.10;14.50;;;31.60;64.40;;;;;;4895529;29;20459;-74
2022/08/15 09:48:39;;;;;;;13.83;13.30;;;30.90;66.20;;;;;;4895330;29;20710;-75
2022/08/15 09:51:25;;;;;;;15.43;14.70;;;30.10;67.70;;;;;;4885429;29;20474;-75
2022/08/15 09:54:05;;;;;;;15.40;14.70;;;30.00;69.00;;;;;;4895357;29;20467;-74
2022/08/15 09:56:36;;;;;;;14.77;14.17;;;29.90;70.60;;;;;;4895166;29;20462;-75
2022/08/15 09:59:09;;;;;;;14.27;13.67;;;29.90;70.10;;;;;;4895079;29;20459;-75
2022/08/15 10:01:44;;;;;;;14.57;13.97;;;30.80;68.30;;;;;;4895212;29;20501;-75
2022/08/15 10:04:14;;;;;;;16.13;15.20;;;32.30;65.00;;;;;;4895057;29;20482;-76
2022/08/15 10:06:53;;;;;;;15.53;14.50;;;32.90;62.40;;;;;;4894956;29;20499;-76
2022/08/15 10:09:32;;;;;;;14.93;14.20;;;32.60;61.90;;;;;;4894863;29;20945;-75
2022/08/15 10:12:06;;;;;;;14.50;14.00;;;31.80;63.30;;;;;;4894738;29;20458;-75
2022/08/15 10:14:42;;;;;;;14.80;14.30;;;31.30;63.40;;;;;;4894887;29;20555;-75
2022/08/15 10:17:27;;;;;;;15.00;14.40;;;31.10;63.80;;;;;;4895183;29;20553;-76
2022/08/15 10:19:55;;;;;;;16.07;15.37;;;31.70;63.10;;;;;;4895129;29;20465;-76
2022/08/15 10:22:49;;;;;;;15.73;15.10;;;32.90;60.10;;;;;;4894816;29;20534;-75
2022/08/15 10:25:28;;;;;;;15.30;14.80;;;34.80;57.40;;;;;;4885672;29;20597;-75
2022/08/15 10:28:05;;;;;;;16.90;16.30;;;35.60;54.90;;;;;;4894936;29;20458;-75
2022/08/15 10:30:34;;;;;;;15.43;14.83;;;35.90;53.80;;;;;;4894673;29;20874;-75
2022/08/15 10:33:02;;;;;;;14.50;13.80;;;35.60;55.00;;;;;;4894423;29;20713;-75
2022/08/15 10:35:37;;;;;;;15.87;15.23;;;35.40;53.90;;;;;;4894637;29;20969;-74
2022/08/15 10:38:07;;;;;;;14.97;14.47;;;33.90;55.60;;;;;;4894700;29;20454;-75
2022/08/15 10:40:51;;;;;;;14.87;14.37;;;33.70;56.30;;;;;;4894696;29;20486;-75
2022/08/15 10:43:39;;;;;;;16.20;15.60;;;34.00;56.60;;;;;;4892732;29;20506;-76
2022/08/15 10:46:17;;;;;;;16.10;15.40;;;35.50;53.90;;;;;;4894445;29;20465;-76
2022/08/15 10:48:58;;;;;;;15.43;14.83;;;35.20;53.80;;;;;;4894840;29;20520;-76
2022/08/15 10:51:43;;;;;;;15.90;15.30;;;34.50;55.00;;;;;;4898568;29;20482;-75
2022/08/15 10:54:22;;;;;;;16.10;15.10;;;33.50;57.00;;;;;;4898327;29;20877;-74
2022/08/15 10:56:54;;;;;;;15.93;15.23;;;32.10;59.00;;;;;;4897983;29;20462;-74
2022/08/15 10:59:26;;;;;;;15.13;14.53;;;31.20;61.60;;;;;;4898230;29;20459;-75
2022/08/15 11:02:05;;;;;;;15.90;15.30;;;31.60;60.70;;;;;;4898184;29;20498;-75
2022/08/15 11:04:35;;;;;;;16.67;15.97;;;33.20;58.90;;;;;;4896105;29;20514;-74
2022/08/15 11:07:03;;;;;;;16.90;16.13;;;34.20;56.10;;;;;;4897508;29;20482;-74
2022/08/15 11:09:30;;;;;;;16.07;15.57;;;34.30;55.60;;;;;;4897615;29;20542;-75
2022/08/15 11:12:00;;;;;;;15.60;15.00;;;34.60;55.00;;;;;;4897838;29;20455;-75
2022/08/15 11:14:31;;;;;;;16.23;15.57;;;35.70;53.30;;;;;;4897831;29;20572;-75
2022/08/15 11:17:00;;;;;;;17.03;16.33;;;36.40;51.40;;;;;;4896181;29;20527;-75
2022/08/15 11:19:30;;;;;;;17.63;16.80;;;36.70;50.50;;;;;;4897887;29;20446;-76
2022/08/15 11:21:59;;;;;;;16.30;15.80;;;37.20;50.20;;;;;;4897621;29;20498;-76
2022/08/15 11:24:30;;;;;;;17.27;16.57;;;38.40;47.40;;;;;;4897928;29;20455;-75
2022/08/15 11:27:11;;;;;;;15.50;15.00;;;39.50;45.40;;;;;;4897897;29;20463;-75
2022/08/15 11:29:40;;;;;;;16.00;15.50;;;37.60;46.80;;;;;;4897537;29;20514;-76
2022/08/15 11:32:07;;;;;;;15.77;15.17;;;36.60;47.40;;;;;;4897804;29;20490;-76
2022/08/15 11:34:36;;;;;;;16.40;15.73;;;35.70;49.90;;;;;;4897338;29;20961;-76
2022/08/15 11:37:09;;;;;;;16.27;15.57;;;34.70;51.20;;;;;;4897482;29;20455;-75
2022/08/15 11:39:39;;;;;;;15.53;14.93;;;33.70;53.10;;;;;;4897383;29;20455;-75
2022/08/15 11:42:10;;;;;;;15.20;14.50;;;32.80;54.70;;;;;;4897056;29;20485;-77
2022/08/15 11:44:43;;;;;;;43.23;24.97;;;32.30;56.10;;;;;;4897706;29;20517;-74
2022/08/15 11:47:16;;;;;;;17.53;16.20;;;33.20;55.10;;;;;;4897585;29;20466;-75
2022/08/15 11:49:47;;;;;;;35.80;19.00;;;33.80;52.80;;;;;;4896889;29;20451;-75
2022/08/15 11:52:19;;;;;;;14.97;14.37;;;33.20;54.10;;;;;;4896190;29;20447;-76
2022/08/15 11:54:46;;;;;;;15.30;14.70;;;33.80;53.40;;;;;;4897200;29;20451;-75
2022/08/15 11:57:22;;;;;;;202.67;43.80;;;34.90;52.30;;;;;;4897228;29;20460;-75
2022/08/15 12:00:06;;;;;;;20.30;18.17;;;35.40;50.90;;;;;;4896821;29;20934;-75
2022/08/15 12:02:33;;;;;;;23.17;20.47;;;36.20;48.70;;;;;;4896705;29;20491;-76
2022/08/15 12:05:12;;;;;;;15.80;15.20;;;37.40;46.80;;;;;;4896943;29;20482;-76
2022/08/15 12:07:44;;;;;;;15.50;14.90;;;38.10;44.50;;;;;;4897180;29;20462;-76
2022/08/15 12:10:25;;;;;;;15.27;14.77;;;38.30;43.00;;;;;;4897159;29;20946;-74
2022/08/15 12:12:52;;;;;;;15.10;14.30;;;36.80;45.50;;;;;;4897013;29;20984;-74
2022/08/15 12:15:25;;;;;;;16.33;15.40;;;36.00;46.80;;;;;;4896940;29;20455;-75
2022/08/15 12:18:07;;;;;;;15.70;14.93;;;35.40;47.20;;;;;;4895166;29;20977;-75
2022/08/15 12:20:39;;;;;;;16.90;15.87;;;35.70;47.80;;;;;;4895021;29;20458;-75
2022/08/15 12:23:34;;;;;;;15.27;14.67;;;35.90;46.90;;;;;;4896610;29;20491;-74
2022/08/15 12:26:02;;;;;;;17.60;16.43;;;36.50;47.20;;;;;;4896509;29;20498;-76
2022/08/15 12:28:31;;;;;;;15.97;15.00;;;37.00;45.80;;;;;;4896431;29;20465;-75
2022/08/15 12:31:16;;;;;;;16.43;15.70;;;36.80;45.90;;;;;;4896723;29;20797;-74
2022/08/15 12:33:43;;;;;;;15.50;14.70;;;35.60;47.00;;;;;;4896449;29;20455;-74
2022/08/15 12:36:11;;;;;;;15.70;15.10;;;34.80;48.20;;;;;;4896515;29;20456;-74
2022/08/15 12:38:39;;;;;;;14.90;14.30;;;34.90;48.40;;;;;;4896387;29;20549;-74
2022/08/15 12:41:07;;;;;;;18.13;16.37;;;35.10;48.60;;;;;;4896250;29;20837;-75
2022/08/15 12:43:35;;;;;;;17.13;15.97;;;34.30;48.80;;;;;;4895891;29;20502;-74
2022/08/15 12:46:03;;;;;;;16.30;15.40;;;33.10;50.90;;;;;;4896135;29;20470;-75
2022/08/15 12:48:33;;;;;;;14.70;14.20;;;32.20;52.60;;;;;;4893511;29;20482;-75
2022/08/15 12:51:01;;;;;;;15.70;14.90;;;32.20;52.90;;;;;;4896054;29;20539;-76
2022/08/15 12:53:28;;;;;;;15.33;14.70;;;33.20;52.00;;;;;;4896271;29;20747;-75
2022/08/15 12:55:55;;;;;;;16.10;15.30;;;33.40;51.10;;;;;;4896192;29;20567;-76
2022/08/15 12:58:22;;;;;;;15.10;14.60;;;33.40;50.10;;;;;;4896056;29;20548;-75
2022/08/15 13:00:54;;;;;;;15.77;14.87;;;32.70;51.60;;;;;;4896160;29;20634;-74
2022/08/15 13:03:28;;;;;;;16.23;15.27;;;31.70;52.70;;;;;;4896103;29;20828;-74
2022/08/15 13:05:59;;;;;;;16.43;15.63;;;30.90;54.50;;;;;;4898104;29;20562;-74
2022/08/15 13:08:26;;;;;;;15.90;15.20;;;30.30;55.00;;;;;;4896327;29;20801;-74
2022/08/15 13:10:53;;;;;;;15.47;14.87;;;30.20;55.60;;;;;;4896208;29;20463;-74
2022/08/15 13:13:21;;;;;;;14.50;14.00;;;30.30;55.80;;;;;;4895751;29;20447;-74
2022/08/15 13:15:49;;;;;;;15.10;14.50;;;30.40;56.10;;;;;;4895763;29;20459;-75
2022/08/15 13:18:19;;;;;;;14.80;14.10;;;30.60;55.70;;;;;;4895623;29;20729;-74
2022/08/15 13:23:39;;;;;;;13.77;13.20;;;30.60;55.20;;;;;;4895488;29;21000;-75
2022/08/15 13:26:08;;;;;;;14.67;14.17;;;30.70;55.80;;;;;;4895692;29;20517;-75
2022/08/15 13:28:36;;;;;;;14.90;14.20;;;30.40;56.00;;;;;;4895400;29;20456;-74
2022/08/15 13:31:03;;;;;;;15.40;14.80;;;30.60;56.30;;;;;;4895394;29;20828;-75
2022/08/15 13:33:31;;;;;;;16.00;15.30;;;31.20;55.40;;;;;;4894983;29;20455;-76
2022/08/15 13:36:01;;;;;;;15.27;14.57;;;32.50;53.70;;;;;;4895224;29;20972;-77
2022/08/15 13:38:29;;;;;;;15.03;14.40;;;32.50;53.10;;;;;;4895255;29;20459;-76
2022/08/15 13:40:56;;;;;;;15.10;14.50;;;33.40;52.10;;;;;;4895463;29;20510;-75
2022/08/15 13:43:23;;;;;;;15.30;14.80;;;33.40;50.80;;;;;;4895030;29;20491;-77
2022/08/15 13:45:50;;;;;;;15.53;14.93;;;33.40;50.90;;;;;;4895292;29;20506;-76
2022/08/15 13:48:34;;;;;;;15.70;15.00;;;34.10;50.20;;;;;;4895272;29;20463;-74
2022/08/15 13:51:06;;;;;;;15.80;15.20;;;34.00;49.10;;;;;;4895323;29;20544;-74
2022/08/15 13:53:34;;;;;;;16.00;15.40;;;33.20;50.70;;;;;;4895346;29;20558;-75
2022/08/15 13:56:01;;;;;;;15.90;15.20;;;33.00;51.20;;;;;;4895509;29;20563;-76
2022/08/15 13:58:28;;;;;;;15.57;14.87;;;33.70;50.60;;;;;;4895204;29;20463;-76
2022/08/15 14:00:55;;;;;;;15.50;14.90;;;34.40;49.00;;;;;;4895462;29;20464;-76
2022/08/15 14:03:22;;;;;;;16.60;15.70;;;34.30;49.00;;;;;;4894907;29;20921;-76
2022/08/15 14:05:49;;;;;;;15.37;14.77;;;34.40;49.40;;;;;;4894696;29;20494;-76
2022/08/15 14:08:17;;;;;;;17.30;16.60;;;34.70;48.00;;;;;;4894724;29;20482;-75
2022/08/15 14:10:44;;;;;;;16.10;15.50;;;34.80;47.70;;;;;;4894874;29;20456;-76
2022/08/15 14:13:11;;;;;;;15.47;14.87;;;34.40;47.70;;;;;;4895107;29;20451;-75
2022/08/15 14:15:37;;;;;;;16.80;15.87;;;33.20;48.90;;;;;;4895276;29;20826;-75
2022/08/15 14:18:05;;;;;;;15.43;14.83;;;32.30;50.60;;;;;;4894834;29;20451;-74
2022/08/15 14:20:32;;;;;;;16.07;15.43;;;32.30;51.30;;;;;;4894828;29;20914;-75
2022/08/15 14:22:59;;;;;;;15.77;15.07;;;32.20;51.00;;;;;;4894357;29;20501;-75
2022/08/15 14:25:28;;;;;;;14.90;14.37;;;32.00;51.40;;;;;;4894691;29;20459;-75
2022/08/15 14:27:55;;;;;;;15.27;14.50;;;31.70;52.90;;;;;;4894999;29;20455;-75
2022/08/15 14:30:27;;;;;;;14.47;13.80;;;31.70;53.40;;;;;;4894809;29;20959;-76
2022/08/15 14:32:54;;;;;;;16.47;15.27;;;31.40;54.00;;;;;;4894918;29;20507;-75
2022/08/15 14:35:22;;;;;;;15.67;14.77;;;30.70;54.90;;;;;;4894815;29;20470;-75
2022/08/15 14:37:51;;;;;;;14.10;13.40;;;30.30;55.90;;;;;;4894510;29;20474;-76
2022/08/15 14:40:22;;;;;;;14.10;13.30;;;30.10;56.50;;;;;;4894429;29;20482;-75
2022/08/15 14:42:51;;;;;;;15.27;14.20;;;29.40;58.20;;;;;;4894366;29;20530;-75
2022/08/15 14:45:18;;;;;;;14.53;13.80;;;28.80;60.30;;;;;;4892218;29;20513;-75
2022/08/15 14:47:45;;;;;;;14.00;13.43;;;28.40;63.70;;;;;;4895244;29;20479;-75
2022/08/15 14:50:14;;;;;;;15.03;13.80;;;28.10;66.20;;;;;;4894901;29;20464;-74
2022/08/15 14:52:42;;;;;;;14.83;14.27;;;27.80;68.10;;;;;;4895257;29;20455;-75
2022/08/15 14:55:09;;;;;;;15.00;14.30;;;27.60;68.80;;;;;;4895435;29;20462;-75
2022/08/15 14:57:36;;;;;;;15.97;15.17;;;27.30;71.40;;;;;;4895276;29;20494;-76